1987 HILARY (1987213N11268)


On this page: IBTrACS data - Map and Plots - Positions - Intensities - Original source data

Summary

Start Jul 31
End Aug 9
Basin EP
LMI 105 kt
Sources hurdat_epa
jtwc_ep
td9636
atcf
In WMO? Yes
Previous storm 1987 GREG (EP)
Previous in basin 1987 GREG (EP)
Concurrent storms 1987 WYNNE (EP)
1987 ALEX (WP)
1987 GREG (EP)
1987 HILARY (EP)
1987 IRWIN (EP)
1987 BETTY (WP)
1987 CARY (WP)
1987 ARLENE (NA)
Next in basin 1987 IRWIN (EP)
Next storm 1987 IRWIN (EP)

top of page IBTrACS Data: File Access

top of page HURSAT Data: File Access

Image of storm

top of page Plots:

Map of storm track will not appear if FTP is down
Time series of cyclone Maximum Sustained Wind will not appear if FTP is down
Time series of cyclone Minimum Central Pressure will not appear if FTP is down

top of page Track Data:Position

hurdat_epa jtwc_ep td9636 atcf
Date Lat Lon Lat Lon Lat Lon Lat Lon
1987-07-31 18:00:00 10.7 -92.4 10.7 -92.4 10.7 -92.4 10.7 -92.4
1987-08-01 00:00:00 11.0 -93.4 11.0 -93.4 11.0 -93.4 11.0 -93.4
1987-08-01 06:00:00 11.4 -94.4 11.4 -94.4 11.4 -94.4 11.4 -94.4
1987-08-01 12:00:00 11.7 -95.3 11.7 -95.3 11.7 -95.3 11.7 -95.3
1987-08-01 18:00:00 11.9 -96.3 11.9 -96.3 11.9 -96.2 11.9 -96.3
1987-08-02 00:00:00 12.1 -97.2 12.1 -97.2 12.1 -97.2 12.1 -97.2
1987-08-02 06:00:00 12.3 -98.2 12.3 -98.2 12.3 -98.2 12.3 -98.2
1987-08-02 12:00:00 12.5 -99.3 12.5 -99.3 12.5 -99.3 12.5 -99.3
1987-08-02 18:00:00 12.7 -100.3 12.7 -100.3 12.7 -100.4 12.7 -100.3
1987-08-03 00:00:00 13.0 -101.6 13.0 -101.6 13.0 -101.6 13.0 -101.6
1987-08-03 06:00:00 13.4 -102.8 13.4 -102.8 13.4 -102.8 13.4 -102.8
1987-08-03 12:00:00 13.8 -104.0 13.8 -104.0 13.8 -104.0 13.8 -104.0
1987-08-03 18:00:00 14.2 -105.2 14.2 -105.2 14.2 -105.2 14.2 -105.2
1987-08-04 00:00:00 14.6 -106.4 14.6 -106.4 14.6 -106.4 14.6 -106.4
1987-08-04 06:00:00 14.9 -107.5 14.9 -107.5 14.9 -107.4 14.9 -107.5
1987-08-04 12:00:00 15.2 -108.4 15.2 -108.4 15.2 -108.4 15.2 -108.4
1987-08-04 18:00:00 15.4 -109.4 15.4 -109.4 15.4 -109.4 15.4 -109.4
1987-08-05 00:00:00 15.6 -110.4 15.6 -110.4 15.6 -110.4 15.6 -110.4
1987-08-05 06:00:00 15.9 -111.3 15.9 -111.3 15.9 -111.3 15.9 -111.3
1987-08-05 12:00:00 16.2 -112.2 16.2 -112.2 16.2 -112.2 16.2 -112.2
1987-08-05 18:00:00 16.7 -113.1 16.7 -113.1 16.6 -113.1 16.7 -113.1
1987-08-06 00:00:00 17.0 -114.0 17.0 -114.0 17.0 -114.0 17.0 -114.0
1987-08-06 06:00:00 17.5 -114.8 17.5 -114.8 17.6 -114.8 17.5 -114.8
1987-08-06 12:00:00 18.2 -115.7 18.2 -115.7 18.2 -115.7 18.2 -115.7
1987-08-06 18:00:00 18.8 -116.9 18.8 -116.9 18.7 -116.8 18.8 -116.9
hurdat_epa jtwc_ep td9636 atcf
1987-08-07 00:00:00 19.2 -117.9 19.2 -117.9 19.2 -117.9 19.2 -117.9
1987-08-07 06:00:00 19.6 -118.7 19.6 -118.7 19.6 -118.8 19.6 -118.7
1987-08-07 12:00:00 20.0 -119.5 20.0 -119.5 20.0 -119.5 20.0 -119.5
1987-08-07 18:00:00 20.5 -120.2 20.5 -120.2 20.6 -120.2 20.5 -120.2
1987-08-08 00:00:00 21.2 -120.8 21.2 -120.8 21.2 -120.8 21.2 -120.8
1987-08-08 06:00:00 21.5 -121.3 21.5 -121.3 21.5 -121.3 21.5 -121.3
1987-08-08 12:00:00 21.7 -121.9 21.7 -121.9 21.7 -121.9 21.7 -121.9
1987-08-08 18:00:00 21.9 -122.6 21.9 -122.6 21.9 -122.6 21.9 -122.6
1987-08-09 00:00:00 22.1 -123.3 22.1 -123.3 22.1 -123.3 22.1 -123.3
1987-08-09 06:00:00 22.4 -123.9 22.4 -123.9 22.4 -123.9 22.4 -123.9

top of pageTrack Data:Intensity

hurdat_epa jtwc_ep td9636 atcf
Date Wind Pres Wind Pres Wind Pres Wind Pres
1987-07-31 18:00:00 25. 25. 25. 25.
1987-08-01 00:00:00 30. 30. 30. 30.
1987-08-01 06:00:00 30. 30. 30. 30.
1987-08-01 12:00:00 35. 35. 35. 35.
1987-08-01 18:00:00 40. 40. 35. 40.
1987-08-02 00:00:00 45. 45. 45. 45.
1987-08-02 06:00:00 55. 55. 45. 55.
1987-08-02 12:00:00 65. 65. 65. 65.
1987-08-02 18:00:00 70. 70. 65. 70.
1987-08-03 00:00:00 75. 75. 75. 75.
1987-08-03 06:00:00 80. 80. 75. 80.
1987-08-03 12:00:00 90. 90. 90. 90.
1987-08-03 18:00:00 100. 100. 90. 100.
1987-08-04 00:00:00 105. 105. 105. 105.
1987-08-04 06:00:00 105. 105. 105. 105.
1987-08-04 12:00:00 105. 105. 105. 105.
1987-08-04 18:00:00 90. 90. 105. 90.
1987-08-05 00:00:00 85. 85. 85. 85.
1987-08-05 06:00:00 80. 80. 85. 80.
1987-08-05 12:00:00 85. 85. 85. 85.
1987-08-05 18:00:00 95. 95. 85. 95.
1987-08-06 00:00:00 95. 95. 95. 95.
1987-08-06 06:00:00 90. 90. 95. 90.
1987-08-06 12:00:00 85. 85. 85. 85.
1987-08-06 18:00:00 75. 75. 85. 75.
hurdat_epa jtwc_ep td9636 atcf
1987-08-07 00:00:00 65. 65. 65. 65.
1987-08-07 06:00:00 65. 65. 65. 65.
1987-08-07 12:00:00 60. 60. 60. 60.
1987-08-07 18:00:00 60. 60. 60. 60.
1987-08-08 00:00:00 60. 60. 60. 60.
1987-08-08 06:00:00 55. 55. 60. 55.
1987-08-08 12:00:00 45. 45. 45. 45.
1987-08-08 18:00:00 35. 35. 45. 35.
1987-08-09 00:00:00 30. 30. 30. 30.
1987-08-09 06:00:00 30. 30. 30. 30.

top of page Links to source data

Source Source file Format
hurdat_epa tracks1949to2011_epa.html:502:HILARY HURDAT
jtwc_ep bep081987.txt ATCF
td9636 cons_worldwide_trop_cyclone_18710101-19891231-002:Line=6185 TD 9636
atcf bep081987.dat ATCF